sensor_id;sensor_type;location;lat;lon;timestamp;pressure;altitude;pressure_sealevel;temperature;humidity
9474;BME280;8865;47.636;7.692;2024-01-11T00:01:32;99102.19;;;0.63;100.00
9474;BME280;8865;47.636;7.692;2024-01-11T00:03:59;99104.50;;;0.71;100.00
9474;BME280;8865;47.636;7.692;2024-01-11T00:06:25;99105.94;;;0.80;100.00
9474;BME280;8865;47.636;7.692;2024-01-11T00:08:51;99102.78;;;0.71;100.00
9474;BME280;8865;47.636;7.692;2024-01-11T00:11:17;99102.88;;;0.68;100.00
9474;BME280;8865;47.636;7.692;2024-01-11T00:13:43;99101.28;;;0.64;100.00
9474;BME280;8865;47.636;7.692;2024-01-11T00:16:09;99100.50;;;0.62;100.00
9474;BME280;8865;47.636;7.692;2024-01-11T00:18:35;99104.03;;;0.58;100.00
9474;BME280;8865;47.636;7.692;2024-01-11T00:21:01;99097.22;;;0.57;100.00
9474;BME280;8865;47.636;7.692;2024-01-11T00:23:28;99100.84;;;0.51;100.00
9474;BME280;8865;47.636;7.692;2024-01-11T00:25:54;99104.13;;;0.55;100.00
9474;BME280;8865;47.636;7.692;2024-01-11T00:28:20;99098.19;;;0.53;100.00
9474;BME280;8865;47.636;7.692;2024-01-11T00:30:46;99098.16;;;0.55;100.00
9474;BME280;8865;47.636;7.692;2024-01-11T00:33:12;99100.00;;;0.51;100.00
9474;BME280;8865;47.636;7.692;2024-01-11T00:35:38;99106.13;;;0.47;100.00
9474;BME280;8865;47.636;7.692;2024-01-11T00:38:05;99103.66;;;0.44;100.00
9474;BME280;8865;47.636;7.692;2024-01-11T00:40:31;99105.53;;;0.39;100.00
9474;BME280;8865;47.636;7.692;2024-01-11T00:42:57;99106.31;;;0.41;100.00
9474;BME280;8865;47.636;7.692;2024-01-11T00:45:23;99102.97;;;0.39;100.00
9474;BME280;8865;47.636;7.692;2024-01-11T00:47:49;99103.88;;;0.36;100.00
9474;BME280;8865;47.636;7.692;2024-01-11T00:50:15;99109.78;;;0.40;100.00
9474;BME280;8865;47.636;7.692;2024-01-11T00:52:42;99109.63;;;0.44;100.00
9474;BME280;8865;47.636;7.692;2024-01-11T00:55:08;99103.66;;;0.44;100.00
9474;BME280;8865;47.636;7.692;2024-01-11T00:57:34;99108.00;;;0.42;100.00
9474;BME280;8865;47.636;7.692;2024-01-11T01:00:00;99110.81;;;0.34;100.00
9474;BME280;8865;47.636;7.692;2024-01-11T01:02:26;99113.34;;;0.35;100.00
9474;BME280;8865;47.636;7.692;2024-01-11T01:04:53;99109.09;;;0.34;100.00
9474;BME280;8865;47.636;7.692;2024-01-11T01:07:18;99111.56;;;0.38;100.00
9474;BME280;8865;47.636;7.692;2024-01-11T01:09:45;99110.44;;;0.18;100.00
9474;BME280;8865;47.636;7.692;2024-01-11T01:12:11;99107.94;;;0.15;100.00
9474;BME280;8865;47.636;7.692;2024-01-11T01:14:37;99118.44;;;0.09;100.00
9474;BME280;8865;47.636;7.692;2024-01-11T01:17:03;99116.75;;;0.08;100.00
9474;BME280;8865;47.636;7.692;2024-01-11T01:19:29;99118.78;;;-0.04;100.00
9474;BME280;8865;47.636;7.692;2024-01-11T01:21:55;99116.34;;;-0.08;100.00
9474;BME280;8865;47.636;7.692;2024-01-11T01:24:21;99121.38;;;-0.04;100.00
9474;BME280;8865;47.636;7.692;2024-01-11T01:26:47;99125.41;;;0.05;100.00
9474;BME280;8865;47.636;7.692;2024-01-11T01:29:13;99121.31;;;-0.02;100.00
9474;BME280;8865;47.636;7.692;2024-01-11T01:31:39;99121.22;;;0.01;100.00
9474;BME280;8865;47.636;7.692;2024-01-11T01:34:07;99116.22;;;-0.04;100.00
9474;BME280;8865;47.636;7.692;2024-01-11T01:36:33;99121.19;;;0.03;100.00
9474;BME280;8865;47.636;7.692;2024-01-11T01:38:59;99128.22;;;-0.03;100.00
9474;BME280;8865;47.636;7.692;2024-01-11T01:41:25;99131.50;;;0.03;100.00
9474;BME280;8865;47.636;7.692;2024-01-11T01:43:51;99132.50;;;-0.03;100.00
9474;BME280;8865;47.636;7.692;2024-01-11T01:46:23;99137.75;;;-0.06;100.00
9474;BME280;8865;47.636;7.692;2024-01-11T01:48:51;99136.25;;;-0.13;100.00
9474;BME280;8865;47.636;7.692;2024-01-11T01:51:17;99133.81;;;-0.18;100.00
9474;BME280;8865;47.636;7.692;2024-01-11T01:53:43;99142.38;;;-0.17;100.00
9474;BME280;8865;47.636;7.692;2024-01-11T01:56:10;99151.09;;;-0.23;100.00
9474;BME280;8865;47.636;7.692;2024-01-11T01:58:37;99146.13;;;-0.29;100.00
9474;BME280;8865;47.636;7.692;2024-01-11T02:01:03;99145.28;;;-0.30;100.00
9474;BME280;8865;47.636;7.692;2024-01-11T02:03:30;99149.41;;;-0.24;100.00
9474;BME280;8865;47.636;7.692;2024-01-11T02:05:56;99153.53;;;-0.19;100.00
9474;BME280;8865;47.636;7.692;2024-01-11T02:08:22;99157.84;;;-0.19;100.00
9474;BME280;8865;47.636;7.692;2024-01-11T02:10:51;99160.38;;;-0.17;100.00
9474;BME280;8865;47.636;7.692;2024-01-11T02:13:18;99156.16;;;-0.20;100.00
9474;BME280;8865;47.636;7.692;2024-01-11T02:15:45;99159.56;;;-0.18;100.00
9474;BME280;8865;47.636;7.692;2024-01-11T02:18:11;99157.84;;;-0.19;100.00
9474;BME280;8865;47.636;7.692;2024-01-11T02:20:37;99157.34;;;-0.32;100.00
9474;BME280;8865;47.636;7.692;2024-01-11T02:23:08;99152.25;;;-0.33;100.00
9474;BME280;8865;47.636;7.692;2024-01-11T02:25:38;99162.56;;;-0.33;100.00
9474;BME280;8865;47.636;7.692;2024-01-11T02:28:04;99155.91;;;-0.42;100.00
9474;BME280;8865;47.636;7.692;2024-01-11T02:30:30;99157.53;;;-0.38;100.00
9474;BME280;8865;47.636;7.692;2024-01-11T02:32:57;99157.41;;;-0.33;100.00
9474;BME280;8865;47.636;7.692;2024-01-11T02:35:24;99154.13;;;-0.40;100.00
9474;BME280;8865;47.636;7.692;2024-01-11T02:37:51;99149.84;;;-0.40;100.00
9474;BME280;8865;47.636;7.692;2024-01-11T02:40:18;99154.13;;;-0.40;100.00
9474;BME280;8865;47.636;7.692;2024-01-11T02:42:45;99158.34;;;-0.38;100.00
9474;BME280;8865;47.636;7.692;2024-01-11T02:45:11;99158.28;;;-0.34;100.00
9474;BME280;8865;47.636;7.692;2024-01-11T02:47:38;99152.22;;;-0.32;100.00
9474;BME280;8865;47.636;7.692;2024-01-11T02:50:06;99148.66;;;-0.28;100.00
9474;BME280;8865;47.636;7.692;2024-01-11T02:52:33;99146.06;;;-0.28;100.00
9474;BME280;8865;47.636;7.692;2024-01-11T02:54:59;99152.13;;;-0.29;100.00
9474;BME280;8865;47.636;7.692;2024-01-11T02:57:25;99155.56;;;-0.30;100.00
9474;BME280;8865;47.636;7.692;2024-01-11T02:59:52;99160.06;;;-0.37;100.00
9474;BME280;8865;47.636;7.692;2024-01-11T03:02:18;99148.84;;;-0.36;100.00
9474;BME280;8865;47.636;7.692;2024-01-11T03:04:44;99135.81;;;-0.29;100.00
9474;BME280;8865;47.636;7.692;2024-01-11T03:07:10;99151.34;;;-0.32;100.00
9474;BME280;8865;47.636;7.692;2024-01-11T03:09:36;99154.75;;;-0.30;100.00
9474;BME280;8865;47.636;7.692;2024-01-11T03:12:03;99151.34;;;-0.32;100.00
9474;BME280;8865;47.636;7.692;2024-01-11T03:14:29;99148.72;;;-0.31;100.00
9474;BME280;8865;47.636;7.692;2024-01-11T03:16:55;99148.84;;;-0.36;100.00
9474;BME280;8865;47.636;7.692;2024-01-11T03:19:21;99154.91;;;-0.37;100.00
9474;BME280;8865;47.636;7.692;2024-01-11T03:21:47;99142.97;;;-0.39;100.00
9474;BME280;8865;47.636;7.692;2024-01-11T03:24:14;99145.69;;;-0.45;100.00
9474;BME280;8865;47.636;7.692;2024-01-11T03:26:40;99149.94;;;-0.43;100.00
9474;BME280;8865;47.636;7.692;2024-01-11T03:29:07;99143.84;;;-0.40;100.00
9474;BME280;8865;47.636;7.692;2024-01-11T03:31:33;99141.47;;;-0.48;100.00
9474;BME280;8865;47.636;7.692;2024-01-11T03:33:59;99145.03;;;-0.52;100.00
9474;BME280;8865;47.636;7.692;2024-01-11T03:36:25;99142.53;;;-0.55;100.00
9474;BME280;8865;47.636;7.692;2024-01-11T03:38:51;99144.94;;;-0.49;100.00
9474;BME280;8865;47.636;7.692;2024-01-11T03:41:17;99144.16;;;-0.52;100.00
9474;BME280;8865;47.636;7.692;2024-01-11T03:43:43;99143.25;;;-0.50;100.00
9474;BME280;8865;47.636;7.692;2024-01-11T03:46:09;99139.88;;;-0.52;100.00
9474;BME280;8865;47.636;7.692;2024-01-11T03:48:35;99135.44;;;-0.47;100.00
9474;BME280;8865;47.636;7.692;2024-01-11T03:51:01;99143.44;;;-0.58;100.00
9474;BME280;8865;47.636;7.692;2024-01-11T03:53:28;99139.25;;;-0.62;100.00
9474;BME280;8865;47.636;7.692;2024-01-11T03:55:54;99141.97;;;-0.66;100.00
9474;BME280;8865;47.636;7.692;2024-01-11T03:58:20;99145.44;;;-0.67;100.00
9474;BME280;8865;47.636;7.692;2024-01-11T04:00:46;99139.75;;;-0.80;100.00
9474;BME280;8865;47.636;7.692;2024-01-11T04:03:12;99138.97;;;-0.84;100.00
9474;BME280;8865;47.636;7.692;2024-01-11T04:05:38;99134.81;;;-0.90;100.00
9474;BME280;8865;47.636;7.692;2024-01-11T04:08:05;99140.13;;;-0.96;100.00
9474;BME280;8865;47.636;7.692;2024-01-11T04:10:32;99141.63;;;-0.87;100.00
9474;BME280;8865;47.636;7.692;2024-01-11T04:12:58;99144.97;;;-0.83;100.00
9474;BME280;8865;47.636;7.692;2024-01-11T04:15:24;99137.38;;;-0.88;100.00
9474;BME280;8865;47.636;7.692;2024-01-11T04:17:50;99145.94;;;-0.87;100.00
9474;BME280;8865;47.636;7.692;2024-01-11T04:20:16;99135.81;;;-0.94;100.00
9474;BME280;8865;47.636;7.692;2024-01-11T04:22:42;99137.28;;;-0.85;100.00
9474;BME280;8865;47.636;7.692;2024-01-11T04:25:08;99138.19;;;-0.86;100.00
9474;BME280;8865;47.636;7.692;2024-01-11T04:27:34;99146.59;;;-0.79;100.00
9474;BME280;8865;47.636;7.692;2024-01-11T04:30:00;99141.41;;;-0.78;100.00
9474;BME280;8865;47.636;7.692;2024-01-11T04:32:26;99138.78;;;-0.76;100.00
9474;BME280;8865;47.636;7.692;2024-01-11T04:34:52;99138.88;;;-0.79;100.00
9474;BME280;8865;47.636;7.692;2024-01-11T04:37:18;99132.84;;;-0.78;100.00
9474;BME280;8865;47.636;7.692;2024-01-11T04:39:44;99132.03;;;-0.80;100.00
9474;BME280;8865;47.636;7.692;2024-01-11T04:42:10;99125.09;;;-0.77;100.00
9474;BME280;8865;47.636;7.692;2024-01-11T04:44:37;99123.31;;;-0.75;100.00
9474;BME280;8865;47.636;7.692;2024-01-11T04:47:03;99127.53;;;-0.72;100.00
9474;BME280;8865;47.636;7.692;2024-01-11T04:49:29;99135.22;;;-0.70;100.00
9474;BME280;8865;47.636;7.692;2024-01-11T04:51:55;99136.88;;;-0.69;100.00
9474;BME280;8865;47.636;7.692;2024-01-11T04:54:21;99129.06;;;-0.65;100.00
9474;BME280;8865;47.636;7.692;2024-01-11T04:56:47;99123.88;;;-0.63;100.00
9474;BME280;8865;47.636;7.692;2024-01-11T04:59:13;99130.06;;;-0.70;100.00
9474;BME280;8865;47.636;7.692;2024-01-11T05:01:39;99124.09;;;-0.73;100.00
9474;BME280;8865;47.636;7.692;2024-01-11T05:04:06;99127.25;;;-0.61;100.00
9474;BME280;8865;47.636;7.692;2024-01-11T05:06:32;99123.94;;;-0.66;100.00
9474;BME280;8865;47.636;7.692;2024-01-11T05:08:58;99113.03;;;-0.75;100.00
9474;BME280;8865;47.636;7.692;2024-01-11T05:11:24;99117.34;;;-0.75;100.00
9474;BME280;8865;47.636;7.692;2024-01-11T05:13:51;99114.59;;;-0.69;100.00
9474;BME280;8865;47.636;7.692;2024-01-11T05:16:24;99117.28;;;-0.74;100.00
9474;BME280;8865;47.636;7.692;2024-01-11T05:18:52;99110.38;;;-0.72;100.00
9474;BME280;8865;47.636;7.692;2024-01-11T05:21:18;99118.84;;;-0.68;100.00
9474;BME280;8865;47.636;7.692;2024-01-11T05:23:45;99112.94;;;-0.72;100.00
9474;BME280;8865;47.636;7.692;2024-01-11T05:26:13;99115.59;;;-0.75;100.00
9474;BME280;8865;47.636;7.692;2024-01-11T05:28:39;99116.47;;;-0.76;100.00
9474;BME280;8865;47.636;7.692;2024-01-11T05:31:12;99119.13;;;-0.79;100.00
9474;BME280;8865;47.636;7.692;2024-01-11T05:33:39;99124.00;;;-0.68;100.00
9474;BME280;8865;47.636;7.692;2024-01-11T05:36:06;99116.22;;;-0.66;100.00
9474;BME280;8865;47.636;7.692;2024-01-11T05:38:32;99117.34;;;-0.75;100.00
9474;BME280;8865;47.636;7.692;2024-01-11T05:40:58;99124.00;;;-0.68;100.00
9474;BME280;8865;47.636;7.692;2024-01-11T05:43:24;99123.22;;;-0.72;100.00
9474;BME280;8865;47.636;7.692;2024-01-11T05:45:50;99125.97;;;-0.78;100.00
9474;BME280;8865;47.636;7.692;2024-01-11T05:48:17;99130.41;;;-0.83;100.00
9474;BME280;8865;47.636;7.692;2024-01-11T05:50:44;99123.50;;;-0.82;100.00
9474;BME280;8865;47.636;7.692;2024-01-11T05:53:11;99128.31;;;-1.03;100.00
9474;BME280;8865;47.636;7.692;2024-01-11T05:55:38;99122.31;;;-1.03;100.00
9474;BME280;8865;47.636;7.692;2024-01-11T05:58:04;99132.78;;;-1.11;100.00
9474;BME280;8865;47.636;7.692;2024-01-11T06:00:30;99141.50;;;-1.17;100.00
9474;BME280;8865;47.636;7.692;2024-01-11T06:02:56;99143.19;;;-1.16;100.00
9474;BME280;8865;47.636;7.692;2024-01-11T06:05:22;99139.06;;;-1.23;100.00
9474;BME280;8865;47.636;7.692;2024-01-11T06:07:49;99146.13;;;-1.31;100.00
9474;BME280;8865;47.636;7.692;2024-01-11T06:10:15;99150.31;;;-1.27;100.00
9474;BME280;8865;47.636;7.692;2024-01-11T06:12:41;99146.06;;;-1.28;100.00
9474;BME280;8865;47.636;7.692;2024-01-11T06:15:07;99141.72;;;-1.26;100.00
9474;BME280;8865;47.636;7.692;2024-01-11T06:17:33;99141.34;;;-1.47;100.00
9474;BME280;8865;47.636;7.692;2024-01-11T06:20:00;99143.34;;;-1.59;100.00
9474;BME280;8865;47.636;7.692;2024-01-11T06:22:26;99142.50;;;-1.60;100.00
9474;BME280;8865;47.636;7.692;2024-01-11T06:24:52;99143.19;;;-1.52;100.00
9474;BME280;8865;47.636;7.692;2024-01-11T06:27:18;99138.94;;;-1.54;100.00
9474;BME280;8865;47.636;7.692;2024-01-11T06:29:44;99146.47;;;-1.47;100.00
9474;BME280;8865;47.636;7.692;2024-01-11T06:32:10;99145.78;;;-1.53;100.00
9474;BME280;8865;47.636;7.692;2024-01-11T06:34:36;99150.03;;;-1.52;100.00
9474;BME280;8865;47.636;7.692;2024-01-11T06:37:02;99151.63;;;-1.47;100.00
9474;BME280;8865;47.636;7.692;2024-01-11T06:39:29;99153.59;;;-1.58;100.00
9474;BME280;8865;47.636;7.692;2024-01-11T06:41:57;99149.22;;;-1.54;100.00
9474;BME280;8865;47.636;7.692;2024-01-11T06:44:24;99160.16;;;-1.46;100.00
9474;BME280;8865;47.636;7.692;2024-01-11T06:46:50;99153.34;;;-1.47;100.00
9474;BME280;8865;47.636;7.692;2024-01-11T06:49:16;99159.56;;;-1.57;100.00
9474;BME280;8865;47.636;7.692;2024-01-11T06:51:42;99162.91;;;-1.54;100.00
9474;BME280;8865;47.636;7.692;2024-01-11T06:54:08;99160.38;;;-1.55;100.00
9474;BME280;8865;47.636;7.692;2024-01-11T06:56:34;99166.50;;;-1.61;100.00
9474;BME280;8865;47.636;7.692;2024-01-11T06:59:01;99175.19;;;-1.67;100.00
9474;BME280;8865;47.636;7.692;2024-01-11T07:01:27;99181.41;;;-1.78;100.00
9474;BME280;8865;47.636;7.692;2024-01-11T07:03:54;99183.91;;;-1.75;100.00
9474;BME280;8865;47.636;7.692;2024-01-11T07:06:20;99183.63;;;-1.62;100.00
9474;BME280;8865;47.636;7.692;2024-01-11T07:08:46;99186.88;;;-1.53;100.00
9474;BME280;8865;47.636;7.692;2024-01-11T07:11:12;99186.91;;;-1.55;100.00
9474;BME280;8865;47.636;7.692;2024-01-11T07:13:38;99187.78;;;-1.56;100.00
9474;BME280;8865;47.636;7.692;2024-01-11T07:16:05;99188.59;;;-1.54;100.00
9474;BME280;8865;47.636;7.692;2024-01-11T07:18:31;99194.69;;;-1.58;100.00
9474;BME280;8865;47.636;7.692;2024-01-11T07:20:59;99202.16;;;-1.47;100.00
9474;BME280;8865;47.636;7.692;2024-01-11T07:23:26;99194.66;;;-1.56;100.00
9474;BME280;8865;47.636;7.692;2024-01-11T07:25:52;99196.88;;;-1.82;100.00
9474;BME280;8865;47.636;7.692;2024-01-11T07:28:18;99204.59;;;-1.82;100.00
9474;BME280;8865;47.636;7.692;2024-01-11T07:30:45;99208.03;;;-1.81;100.00
9474;BME280;8865;47.636;7.692;2024-01-11T07:33:12;99206.00;;;-1.67;100.00
9474;BME280;8865;47.636;7.692;2024-01-11T07:35:38;99212.28;;;-1.82;100.00
9474;BME280;8865;47.636;7.692;2024-01-11T07:38:04;99207.09;;;-1.78;100.00
9474;BME280;8865;47.636;7.692;2024-01-11T07:40:30;99211.97;;;-1.66;100.00
9474;BME280;8865;47.636;7.692;2024-01-11T07:42:56;99222.00;;;-1.54;100.00
9474;BME280;8865;47.636;7.692;2024-01-11T07:45:22;99218.75;;;-1.62;100.00
9474;BME280;8865;47.636;7.692;2024-01-11T07:47:48;99217.81;;;-1.58;100.00
9474;BME280;8865;47.636;7.692;2024-01-11T07:50:14;99227.78;;;-1.44;100.00
9474;BME280;8865;47.636;7.692;2024-01-11T07:52:40;99233.59;;;-1.36;100.00
9474;BME280;8865;47.636;7.692;2024-01-11T07:55:08;99241.19;;;-1.30;100.00
9474;BME280;8865;47.636;7.692;2024-01-11T07:57:36;99235.25;;;-1.32;100.00
9474;BME280;8865;47.636;7.692;2024-01-11T08:00:04;99235.16;;;-1.29;100.00
9474;BME280;8865;47.636;7.692;2024-01-11T08:02:33;99230.72;;;-1.22;100.00
9474;BME280;8865;47.636;7.692;2024-01-11T08:04:59;99236.81;;;-1.26;100.00
9474;BME280;8865;47.636;7.692;2024-01-11T08:07:28;99237.50;;;-1.18;100.00
9474;BME280;8865;47.636;7.692;2024-01-11T08:09:55;99240.72;;;-1.10;100.00
9474;BME280;8865;47.636;7.692;2024-01-11T08:12:21;99242.28;;;-1.02;100.00
9474;BME280;8865;47.636;7.692;2024-01-11T08:14:47;99245.53;;;-0.94;100.00
9474;BME280;8865;47.636;7.692;2024-01-11T08:17:14;99246.31;;;-0.91;100.00
9474;BME280;8865;47.636;7.692;2024-01-11T08:19:40;99249.00;;;-0.95;100.00
9474;BME280;8865;47.636;7.692;2024-01-11T08:22:09;99247.81;;;-1.19;100.00
9474;BME280;8865;47.636;7.692;2024-01-11T08:24:35;99239.16;;;-1.17;100.00
9474;BME280;8865;47.636;7.692;2024-01-11T08:27:01;99239.81;;;-1.07;100.00
9474;BME280;8865;47.636;7.692;2024-01-11T08:29:27;99235.38;;;-1.00;100.00
9474;BME280;8865;47.636;7.692;2024-01-11T08:31:54;99245.47;;;-0.93;100.00
9474;BME280;8865;47.636;7.692;2024-01-11T08:34:22;99251.84;;;-1.09;100.00
9474;BME280;8865;47.636;7.692;2024-01-11T08:36:49;99251.75;;;-1.03;100.00
9474;BME280;8865;47.636;7.692;2024-01-11T08:39:15;99245.59;;;-0.97;100.00
9474;BME280;8865;47.636;7.692;2024-01-11T08:41:42;99259.13;;;-0.89;100.00
9474;BME280;8865;47.636;7.692;2024-01-11T08:44:08;99254.03;;;-0.91;100.00
9474;BME280;8865;47.636;7.692;2024-01-11T08:46:34;99252.31;;;-0.92;100.00
9474;BME280;8865;47.636;7.692;2024-01-11T08:49:01;99245.63;;;-0.99;100.00
9474;BME280;8865;47.636;7.692;2024-01-11T08:51:29;99252.56;;;-1.02;100.00
9474;BME280;8865;47.636;7.692;2024-01-11T08:53:55;99259.22;;;-0.92;100.00
9474;BME280;8865;47.636;7.692;2024-01-11T08:56:22;99260.63;;;-0.80;100.00
9474;BME280;8865;47.636;7.692;2024-01-11T08:58:48;99256.25;;;-0.75;100.00
9474;BME280;8865;47.636;7.692;2024-01-11T09:01:15;99252.94;;;-0.82;100.00
9474;BME280;8865;47.636;7.692;2024-01-11T09:04:03;99253.84;;;-0.83;100.00
9474;BME280;8865;47.636;7.692;2024-01-11T09:06:27;99256.38;;;-0.81;100.00
9474;BME280;8865;47.636;7.692;2024-01-11T09:08:53;99265.66;;;-0.76;100.00
9474;BME280;8865;47.636;7.692;2024-01-11T09:11:19;99265.56;;;-0.71;100.00
9474;BME280;8865;47.636;7.692;2024-01-11T09:13:45;99272.38;;;-0.68;100.00
9474;BME280;8865;47.636;7.692;2024-01-11T09:16:16;99257.97;;;-0.77;100.00
9474;BME280;8865;47.636;7.692;2024-01-11T09:18:45;99266.28;;;-0.64;100.00
9474;BME280;8865;47.636;7.692;2024-01-11T09:21:11;99268.66;;;-0.57;100.00
9474;BME280;8865;47.636;7.692;2024-01-11T09:23:38;99268.41;;;-0.46;100.00
9474;BME280;8865;47.636;7.692;2024-01-11T09:26:04;99264.03;;;-0.44;100.00
9474;BME280;8865;47.636;7.692;2024-01-11T09:28:31;99263.00;;;-0.37;100.00
9474;BME280;8865;47.636;7.692;2024-01-11T09:30:57;99263.81;;;-0.34;100.00
9474;BME280;8865;47.636;7.692;2024-01-11T09:33:26;99256.91;;;-0.34;100.00
9474;BME280;8865;47.636;7.692;2024-01-11T09:35:52;99267.94;;;-0.27;100.00
9474;BME280;8865;47.636;7.692;2024-01-11T09:38:18;99277.25;;;-0.23;100.00
9474;BME280;8865;47.636;7.692;2024-01-11T09:40:44;99277.00;;;-0.14;100.00
9474;BME280;8865;47.636;7.692;2024-01-11T09:43:10;99286.31;;;-0.08;100.00
9474;BME280;8865;47.636;7.692;2024-01-11T09:45:37;99283.50;;;0.01;100.00
9474;BME280;8865;47.636;7.692;2024-01-11T09:48:05;99279.16;;;0.03;100.00
9474;BME280;8865;47.636;7.692;2024-01-11T09:50:32;99266.47;;;-0.05;100.00
9474;BME280;8865;47.636;7.692;2024-01-11T09:53:01;99265.28;;;0.07;100.00
9474;BME280;8865;47.636;7.692;2024-01-11T09:55:31;99265.75;;;-0.10;100.00
9474;BME280;8865;47.636;7.692;2024-01-11T09:57:59;99251.50;;;-0.23;100.00
9474;BME280;8865;47.636;7.692;2024-01-11T10:00:26;99247.84;;;-0.14;100.00
9474;BME280;8865;47.636;7.692;2024-01-11T10:02:53;99265.66;;;-0.07;100.00
9474;BME280;8865;47.636;7.692;2024-01-11T10:05:19;99270.69;;;-0.02;100.00
9474;BME280;8865;47.636;7.692;2024-01-11T10:07:45;99272.19;;;0.07;100.00
9474;BME280;8865;47.636;7.692;2024-01-11T10:10:12;99272.94;;;0.10;100.00
9474;BME280;8865;47.636;7.692;2024-01-11T10:12:41;99272.06;;;0.11;100.00
9474;BME280;8865;47.636;7.692;2024-01-11T10:15:08;99271.09;;;0.15;100.00
9474;BME280;8865;47.636;7.692;2024-01-11T10:17:43;99268.34;;;0.22;100.00
9474;BME280;8865;47.636;7.692;2024-01-11T10:20:13;99265.47;;;0.01;100.00
9474;BME280;8865;47.636;7.692;2024-01-11T10:22:40;99260.31;;;-0.32;100.00
9474;BME280;8865;47.636;7.692;2024-01-11T10:25:11;99264.13;;;-0.14;100.00
9474;BME280;8865;47.636;7.692;2024-01-11T10:27:40;99249.19;;;-0.34;100.00
9474;BME280;8865;47.636;7.692;2024-01-11T10:30:08;99249.59;;;-0.15;100.00
9474;BME280;8865;47.636;7.692;2024-01-11T10:32:34;99250.41;;;-0.14;100.00
9474;BME280;8865;47.636;7.692;2024-01-11T10:35:01;99253.94;;;-0.19;100.00
9474;BME280;8865;47.636;7.692;2024-01-11T10:37:31;99264.84;;;-0.42;100.00
9474;BME280;8865;47.636;7.692;2024-01-11T10:40:03;99262.09;;;-0.36;100.00
9474;BME280;8865;47.636;7.692;2024-01-11T10:42:36;99262.38;;;-0.12;100.00
9474;BME280;8865;47.636;7.692;2024-01-11T10:45:11;99264.41;;;0.08;100.00
9474;BME280;8865;47.636;7.692;2024-01-11T10:47:47;99265.03;;;0.16;100.00
9474;BME280;8865;47.636;7.692;2024-01-11T10:50:16;99277.97;;;0.15;100.00
9474;BME280;8865;47.636;7.692;2024-01-11T10:55:21;99276.31;;;0.14;100.00
9474;BME280;8865;47.636;7.692;2024-01-11T10:57:49;99274.00;;;0.03;100.00
9474;BME280;8865;47.636;7.692;2024-01-11T11:00:17;99269.00;;;-0.03;100.00
9474;BME280;8865;47.636;7.692;2024-01-11T11:02:44;99278.50;;;-0.05;100.00
9474;BME280;8865;47.636;7.692;2024-01-11T11:05:13;99274.69;;;0.10;100.00
9474;BME280;8865;47.636;7.692;2024-01-11T11:07:41;99266.53;;;0.25;100.00
9474;BME280;8865;47.636;7.692;2024-01-11T11:10:08;99258.44;;;0.08;100.00
9474;BME280;8865;47.636;7.692;2024-01-11T11:12:35;99256.63;;;0.11;100.00
9474;BME280;8865;47.636;7.692;2024-01-11T11:15:05;99260.88;;;0.12;100.00
9474;BME280;8865;47.636;7.692;2024-01-11T11:17:32;99263.09;;;0.26;100.00
9474;BME280;8865;47.636;7.692;2024-01-11T11:19:59;99258.47;;;0.38;100.00
9474;BME280;8865;47.636;7.692;2024-01-11T11:22:36;99248.75;;;0.46;100.00
9474;BME280;8865;47.636;7.692;2024-01-11T11:25:04;99243.34;;;0.55;100.00
9474;BME280;8865;47.636;7.692;2024-01-11T11:27:31;99255.25;;;0.59;100.00
9474;BME280;8865;47.636;7.692;2024-01-11T11:29:57;99247.56;;;0.58;100.00
9474;BME280;8865;47.636;7.692;2024-01-11T11:32:43;99231.94;;;0.34;100.00
9474;BME280;8865;47.636;7.692;2024-01-11T11:35:09;99236.28;;;0.32;100.00
9474;BME280;8865;47.636;7.692;2024-01-11T11:37:39;99223.25;;;0.37;100.00
9474;BME280;8865;47.636;7.692;2024-01-11T11:40:06;99221.13;;;0.51;100.00
9474;BME280;8865;47.636;7.692;2024-01-11T11:42:36;99225.13;;;0.61;100.00
9474;BME280;8865;47.636;7.692;2024-01-11T11:45:03;99214.81;;;0.61;100.00
9474;BME280;8865;47.636;7.692;2024-01-11T11:47:36;99217.66;;;0.52;100.00
9474;BME280;8865;47.636;7.692;2024-01-11T11:50:08;99212.94;;;0.66;100.00
9474;BME280;8865;47.636;7.692;2024-01-11T11:52:38;99214.25;;;0.80;100.00
9474;BME280;8865;47.636;7.692;2024-01-11T11:55:08;99207.91;;;0.90;100.00
9474;BME280;8865;47.636;7.692;2024-01-11T11:57:35;99211.13;;;0.97;100.00
9474;BME280;8865;47.636;7.692;2024-01-11T12:00:01;99204.16;;;1.00;100.00
9474;BME280;8865;47.636;7.692;2024-01-11T12:02:32;99196.06;;;1.11;100.00
9474;BME280;8865;47.636;7.692;2024-01-11T12:04:59;99188.88;;;1.21;100.00
9474;BME280;8865;47.636;7.692;2024-01-11T12:07:25;99182.16;;;1.17;100.00
9474;BME280;8865;47.636;7.692;2024-01-11T12:09:51;99176.09;;;0.91;100.00
9474;BME280;8865;47.636;7.692;2024-01-11T12:12:18;99175.69;;;1.03;100.00
9474;BME280;8865;47.636;7.692;2024-01-11T12:14:49;99168.31;;;1.18;100.00
9474;BME280;8865;47.636;7.692;2024-01-11T12:17:16;99166.88;;;1.11;100.00
9474;BME280;8865;47.636;7.692;2024-01-11T12:19:42;99171.88;;;1.15;100.00
9474;BME280;8865;47.636;7.692;2024-01-11T12:22:08;99185.34;;;1.23;100.00
9474;BME280;8865;47.636;7.692;2024-01-11T12:24:34;99192.13;;;1.28;100.00
9474;BME280;8865;47.636;7.692;2024-01-11T12:27:01;99181.75;;;1.29;100.00
9474;BME280;8865;47.636;7.692;2024-01-11T12:29:30;99190.31;;;1.30;100.00
9474;BME280;8865;47.636;7.692;2024-01-11T12:31:57;99193.34;;;1.16;100.00
9474;BME280;8865;47.636;7.692;2024-01-11T12:34:27;99191.56;;;1.18;100.00
9474;BME280;8865;47.636;7.692;2024-01-11T12:36:54;99187.22;;;1.20;100.00
9474;BME280;8865;47.636;7.692;2024-01-11T12:39:24;99187.16;;;1.21;100.00
9474;BME280;8865;47.636;7.692;2024-01-11T12:41:53;99181.59;;;1.07;100.00
9474;BME280;8865;47.636;7.692;2024-01-11T12:44:19;99179.06;;;1.05;100.00
9474;BME280;8865;47.636;7.692;2024-01-11T12:46:48;99179.41;;;0.95;100.00
9474;BME280;8865;47.636;7.692;2024-01-11T12:49:15;99177.31;;;0.79;100.00
9474;BME280;8865;47.636;7.692;2024-01-11T12:51:41;99184.66;;;0.92;100.00
9474;BME280;8865;47.636;7.692;2024-01-11T12:54:14;99173.06;;;0.77;100.00
9474;BME280;8865;47.636;7.692;2024-01-11T12:56:45;99180.44;;;0.89;100.00
9474;BME280;8865;47.636;7.692;2024-01-11T12:59:12;99179.91;;;1.06;100.00
9474;BME280;8865;47.636;7.692;2024-01-11T13:01:38;99179.50;;;1.18;100.00
9474;BME280;8865;47.636;7.692;2024-01-11T13:04:08;99182.81;;;1.22;100.00
9474;BME280;8865;47.636;7.692;2024-01-11T13:06:35;99181.06;;;1.22;100.00
9474;BME280;8865;47.636;7.692;2024-01-11T13:09:02;99185.31;;;1.25;100.00
9474;BME280;8865;47.636;7.692;2024-01-11T13:11:29;99181.03;;;1.24;100.00
9474;BME280;8865;47.636;7.692;2024-01-11T13:13:55;99181.13;;;1.21;100.00
9474;BME280;8865;47.636;7.692;2024-01-11T13:16:24;99177.75;;;1.19;100.00